Bridgeville, California
Current Conditions -  °F | °C
As of 7:15 PM on Friday 21 Nov 2014 (Local Time) from KFOT Reporting Station
Overcast Overcast  
Wind Chill: 55°   Ceiling: 4400
Heat Index: 55°   Visibility: 9mi
Dew Point: 54°   Wind: 22mph
Humidity: 94%   Direction: 120°ESE
Pressure: 29.91"   Gusts: 29mph
Location:  40.47°N, 123.8°W
Report Text: KFOT 220315Z AUTO 12019G25KT 9SM SCT035 BKN044 OVC050 13/12 A2991 RMK AO1
Loading
Personal Weather Stations






























Interactive Weather Map New forecast layout! Learn more

10-Day Weather Forecast

Advertisements
Track Severe Weather on mobile